sensor_id;sensor_type;location;lat;lon;timestamp;temperature;humidity
52321;DHT22;38261;54.090;13.382;2023-07-20T07:37:30;19.00;99.90
52321;DHT22;38261;54.090;13.382;2023-07-20T07:39:00;19.30;99.90
52321;DHT22;38261;54.090;13.382;2023-07-20T07:40:25;19.40;99.90
52321;DHT22;38261;54.090;13.382;2023-07-20T07:41:47;19.60;99.90
52321;DHT22;38261;54.090;13.382;2023-07-20T07:43:09;19.70;99.90
52321;DHT22;38261;54.090;13.382;2023-07-20T07:44:32;19.70;99.90
52321;DHT22;38261;54.090;13.382;2023-07-20T07:45:54;19.70;99.90
52321;DHT22;38261;54.090;13.382;2023-07-20T07:48:39;19.30;99.90
52321;DHT22;38261;54.090;13.382;2023-07-20T07:50:02;19.50;99.90
52321;DHT22;38261;54.090;13.382;2023-07-20T07:51:25;19.60;99.90
52321;DHT22;38261;54.090;13.382;2023-07-20T07:52:48;19.90;99.90
52321;DHT22;38261;54.090;13.382;2023-07-20T07:54:11;20.20;99.90
52321;DHT22;38261;54.090;13.382;2023-07-20T07:55:33;20.40;99.90
52321;DHT22;38261;54.090;13.382;2023-07-20T07:56:55;20.40;99.90
52321;DHT22;38261;54.090;13.382;2023-07-20T07:58:18;20.30;99.90
52321;DHT22;38261;54.090;13.382;2023-07-20T07:59:40;20.10;99.90
52321;DHT22;38261;54.090;13.382;2023-07-20T08:01:03;20.00;99.90
52321;DHT22;38261;54.090;13.382;2023-07-20T08:02:25;19.90;99.90
52321;DHT22;38261;54.090;13.382;2023-07-20T08:03:47;19.90;99.90
52321;DHT22;38261;54.090;13.382;2023-07-20T08:05:09;19.90;99.90
52321;DHT22;38261;54.090;13.382;2023-07-20T08:06:32;19.90;99.90
52321;DHT22;38261;54.090;13.382;2023-07-20T08:07:54;19.80;99.90
52321;DHT22;38261;54.090;13.382;2023-07-20T08:09:16;19.80;99.90
52321;DHT22;38261;54.090;13.382;2023-07-20T08:10:38;19.90;99.90
52321;DHT22;38261;54.090;13.382;2023-07-20T08:12:00;20.00;99.90
52321;DHT22;38261;54.090;13.382;2023-07-20T08:13:22;20.20;99.90
52321;DHT22;38261;54.090;13.382;2023-07-20T08:14:44;20.30;99.90
52321;DHT22;38261;54.090;13.382;2023-07-20T08:16:07;20.20;99.90
52321;DHT22;38261;54.090;13.382;2023-07-20T08:17:29;20.20;99.90
52321;DHT22;38261;54.090;13.382;2023-07-20T08:18:51;19.90;99.90
52321;DHT22;38261;54.090;13.382;2023-07-20T08:20:14;19.60;99.90
52321;DHT22;38261;54.090;13.382;2023-07-20T08:21:38;19.60;99.90
52321;DHT22;38261;54.090;13.382;2023-07-20T08:23:00;19.60;99.90
52321;DHT22;38261;54.090;13.382;2023-07-20T08:24:22;19.70;99.90
52321;DHT22;38261;54.090;13.382;2023-07-20T08:25:45;19.90;99.90
52321;DHT22;38261;54.090;13.382;2023-07-20T08:27:07;20.00;99.90
52321;DHT22;38261;54.090;13.382;2023-07-20T08:28:30;20.10;99.90
52321;DHT22;38261;54.090;13.382;2023-07-20T08:29:52;20.30;99.90
52321;DHT22;38261;54.090;13.382;2023-07-20T08:31:14;20.30;99.90
52321;DHT22;38261;54.090;13.382;2023-07-20T08:32:36;20.20;99.90
52321;DHT22;38261;54.090;13.382;2023-07-20T08:33:59;20.00;99.90
52321;DHT22;38261;54.090;13.382;2023-07-20T08:35:21;19.80;99.90
52321;DHT22;38261;54.090;13.382;2023-07-20T08:36:44;19.70;99.90
52321;DHT22;38261;54.090;13.382;2023-07-20T08:38:06;19.60;99.90
52321;DHT22;38261;54.090;13.382;2023-07-20T08:39:29;19.70;99.90
52321;DHT22;38261;54.090;13.382;2023-07-20T08:40:51;19.70;99.90
52321;DHT22;38261;54.090;13.382;2023-07-20T08:42:16;19.80;99.90
52321;DHT22;38261;54.090;13.382;2023-07-20T08:43:39;20.00;99.90
52321;DHT22;38261;54.090;13.382;2023-07-20T08:45:08;20.20;99.90
52321;DHT22;38261;54.090;13.382;2023-07-20T08:46:31;20.30;99.90
52321;DHT22;38261;54.090;13.382;2023-07-20T08:47:55;20.50;99.90
52321;DHT22;38261;54.090;13.382;2023-07-20T08:49:19;20.60;99.90
52321;DHT22;38261;54.090;13.382;2023-07-20T08:50:41;20.60;99.90
52321;DHT22;38261;54.090;13.382;2023-07-20T08:52:05;20.40;99.90
52321;DHT22;38261;54.090;13.382;2023-07-20T08:53:28;20.30;99.90
52321;DHT22;38261;54.090;13.382;2023-07-20T08:54:52;20.10;99.90
52321;DHT22;38261;54.090;13.382;2023-07-20T08:56:16;19.90;99.90
52321;DHT22;38261;54.090;13.382;2023-07-20T08:57:40;19.60;99.90
52321;DHT22;38261;54.090;13.382;2023-07-20T08:59:03;19.60;99.90
52321;DHT22;38261;54.090;13.382;2023-07-20T09:00:27;19.50;99.90
52321;DHT22;38261;54.090;13.382;2023-07-20T09:01:52;19.50;99.90
52321;DHT22;38261;54.090;13.382;2023-07-20T09:03:16;19.50;99.90
52321;DHT22;38261;54.090;13.382;2023-07-20T09:04:38;19.50;99.90
52321;DHT22;38261;54.090;13.382;2023-07-20T09:06:00;19.70;99.90
52321;DHT22;38261;54.090;13.382;2023-07-20T09:07:23;19.80;99.90
52321;DHT22;38261;54.090;13.382;2023-07-20T09:08:46;19.70;99.90
52321;DHT22;38261;54.090;13.382;2023-07-20T09:10:09;19.80;99.90
52321;DHT22;38261;54.090;13.382;2023-07-20T09:11:32;19.90;99.90
52321;DHT22;38261;54.090;13.382;2023-07-20T09:12:54;20.00;99.90
52321;DHT22;38261;54.090;13.382;2023-07-20T09:14:17;20.10;99.90
52321;DHT22;38261;54.090;13.382;2023-07-20T09:15:46;20.10;99.90
52321;DHT22;38261;54.090;13.382;2023-07-20T09:17:13;20.00;99.90
52321;DHT22;38261;54.090;13.382;2023-07-20T09:18:36;19.90;99.90
52321;DHT22;38261;54.090;13.382;2023-07-20T09:20:02;20.00;99.90
52321;DHT22;38261;54.090;13.382;2023-07-20T09:21:29;20.20;99.90
52321;DHT22;38261;54.090;13.382;2023-07-20T09:22:54;20.50;99.90
52321;DHT22;38261;54.090;13.382;2023-07-20T09:24:19;20.70;99.90
52321;DHT22;38261;54.090;13.382;2023-07-20T09:25:41;20.60;99.90
52321;DHT22;38261;54.090;13.382;2023-07-20T09:27:05;20.20;99.90
52321;DHT22;38261;54.090;13.382;2023-07-20T09:28:28;19.80;99.90
52321;DHT22;38261;54.090;13.382;2023-07-20T09:29:51;19.70;99.90
52321;DHT22;38261;54.090;13.382;2023-07-20T09:31:20;19.60;99.90
52321;DHT22;38261;54.090;13.382;2023-07-20T09:32:44;19.60;99.90
52321;DHT22;38261;54.090;13.382;2023-07-20T09:34:09;19.50;99.90
52321;DHT22;38261;54.090;13.382;2023-07-20T09:35:32;19.50;99.90
52321;DHT22;38261;54.090;13.382;2023-07-20T09:37:04;19.50;99.90
52321;DHT22;38261;54.090;13.382;2023-07-20T09:38:27;19.50;99.90
52321;DHT22;38261;54.090;13.382;2023-07-20T09:39:53;19.50;99.90
52321;DHT22;38261;54.090;13.382;2023-07-20T09:41:19;19.60;99.90
52321;DHT22;38261;54.090;13.382;2023-07-20T09:42:44;19.70;99.90
52321;DHT22;38261;54.090;13.382;2023-07-20T09:44:27;19.70;99.90
52321;DHT22;38261;54.090;13.382;2023-07-20T09:45:58;19.90;99.90
52321;DHT22;38261;54.090;13.382;2023-07-20T09:47:23;20.10;99.90
52321;DHT22;38261;54.090;13.382;2023-07-20T09:48:52;20.20;99.90
52321;DHT22;38261;54.090;13.382;2023-07-20T09:50:42;20.20;99.90
52321;DHT22;38261;54.090;13.382;2023-07-20T09:52:05;20.20;99.90
52321;DHT22;38261;54.090;13.382;2023-07-20T09:53:27;20.10;99.90
52321;DHT22;38261;54.090;13.382;2023-07-20T09:54:50;20.00;99.90
52321;DHT22;38261;54.090;13.382;2023-07-20T09:56:12;20.00;99.90
52321;DHT22;38261;54.090;13.382;2023-07-20T09:57:38;20.00;99.90
52321;DHT22;38261;54.090;13.382;2023-07-20T09:59:00;20.00;99.90
52321;DHT22;38261;54.090;13.382;2023-07-20T10:00:23;20.10;99.90
52321;DHT22;38261;54.090;13.382;2023-07-20T10:01:49;20.30;99.90
52321;DHT22;38261;54.090;13.382;2023-07-20T10:03:18;20.40;99.90
52321;DHT22;38261;54.090;13.382;2023-07-20T10:04:41;20.70;99.90
52321;DHT22;38261;54.090;13.382;2023-07-20T10:06:06;20.90;99.90
52321;DHT22;38261;54.090;13.382;2023-07-20T10:07:30;21.10;99.90
52321;DHT22;38261;54.090;13.382;2023-07-20T10:08:53;21.20;99.90
52321;DHT22;38261;54.090;13.382;2023-07-20T10:10:18;21.20;99.90
52321;DHT22;38261;54.090;13.382;2023-07-20T10:11:49;21.20;99.90
52321;DHT22;38261;54.090;13.382;2023-07-20T10:13:32;21.30;99.90
52321;DHT22;38261;54.090;13.382;2023-07-20T10:15:12;21.20;99.90
52321;DHT22;38261;54.090;13.382;2023-07-20T10:16:43;21.20;99.90
52321;DHT22;38261;54.090;13.382;2023-07-20T10:18:35;20.80;99.90
52321;DHT22;38261;54.090;13.382;2023-07-20T10:20:00;20.60;99.90
52321;DHT22;38261;54.090;13.382;2023-07-20T10:21:25;20.70;99.90
52321;DHT22;38261;54.090;13.382;2023-07-20T10:22:53;21.10;99.90
52321;DHT22;38261;54.090;13.382;2023-07-20T10:24:16;21.30;99.90
52321;DHT22;38261;54.090;13.382;2023-07-20T10:25:39;21.40;99.90
52321;DHT22;38261;54.090;13.382;2023-07-20T10:27:04;21.20;99.90
52321;DHT22;38261;54.090;13.382;2023-07-20T10:28:27;21.20;99.90
52321;DHT22;38261;54.090;13.382;2023-07-20T10:29:51;21.10;99.90
52321;DHT22;38261;54.090;13.382;2023-07-20T10:31:14;21.30;99.90
52321;DHT22;38261;54.090;13.382;2023-07-20T10:32:38;21.50;99.90
52321;DHT22;38261;54.090;13.382;2023-07-20T10:34:02;21.40;99.90
52321;DHT22;38261;54.090;13.382;2023-07-20T10:35:24;21.50;99.90
52321;DHT22;38261;54.090;13.382;2023-07-20T10:36:46;21.40;99.90
52321;DHT22;38261;54.090;13.382;2023-07-20T10:38:12;21.30;99.90
52321;DHT22;38261;54.090;13.382;2023-07-20T10:39:34;21.20;99.90
52321;DHT22;38261;54.090;13.382;2023-07-20T10:40:57;21.10;99.90
52321;DHT22;38261;54.090;13.382;2023-07-20T10:42:19;20.80;99.90
52321;DHT22;38261;54.090;13.382;2023-07-20T10:43:46;20.80;99.90
52321;DHT22;38261;54.090;13.382;2023-07-20T10:45:08;20.80;99.90
52321;DHT22;38261;54.090;13.382;2023-07-20T10:46:44;20.90;99.90
52321;DHT22;38261;54.090;13.382;2023-07-20T10:48:25;21.00;99.90
52321;DHT22;38261;54.090;13.382;2023-07-20T10:49:58;21.00;99.90
52321;DHT22;38261;54.090;13.382;2023-07-20T10:51:23;20.90;99.90
52321;DHT22;38261;54.090;13.382;2023-07-20T10:53:04;21.00;99.90
52321;DHT22;38261;54.090;13.382;2023-07-20T10:56:15;21.40;99.90
52321;DHT22;38261;54.090;13.382;2023-07-20T10:57:37;21.60;99.90
52321;DHT22;38261;54.090;13.382;2023-07-20T10:59:00;21.70;99.90
52321;DHT22;38261;54.090;13.382;2023-07-20T11:00:24;21.70;99.90
52321;DHT22;38261;54.090;13.382;2023-07-20T11:01:47;21.60;99.90
52321;DHT22;38261;54.090;13.382;2023-07-20T11:03:27;21.60;99.90
52321;DHT22;38261;54.090;13.382;2023-07-20T11:04:52;21.40;99.90
52321;DHT22;38261;54.090;13.382;2023-07-20T11:07:49;21.30;99.90
52321;DHT22;38261;54.090;13.382;2023-07-20T11:09:13;21.40;99.90
52321;DHT22;38261;54.090;13.382;2023-07-20T11:10:39;21.50;99.90
52321;DHT22;38261;54.090;13.382;2023-07-20T11:13:56;21.90;99.90
52321;DHT22;38261;54.090;13.382;2023-07-20T11:15:19;22.10;99.90
52321;DHT22;38261;54.090;13.382;2023-07-20T11:16:45;22.30;99.90
52321;DHT22;38261;54.090;13.382;2023-07-20T11:18:14;22.30;99.90
52321;DHT22;38261;54.090;13.382;2023-07-20T11:19:36;22.20;99.90
52321;DHT22;38261;54.090;13.382;2023-07-20T11:21:02;22.30;99.90
52321;DHT22;38261;54.090;13.382;2023-07-20T11:22:24;22.40;99.90
52321;DHT22;38261;54.090;13.382;2023-07-20T11:23:47;22.20;99.90
52321;DHT22;38261;54.090;13.382;2023-07-20T11:25:10;21.90;99.90
52321;DHT22;38261;54.090;13.382;2023-07-20T11:28:08;21.30;99.90
52321;DHT22;38261;54.090;13.382;2023-07-20T11:29:34;21.20;99.90
52321;DHT22;38261;54.090;13.382;2023-07-20T11:30:56;20.90;99.90
52321;DHT22;38261;54.090;13.382;2023-07-20T11:32:25;20.80;99.90
52321;DHT22;38261;54.090;13.382;2023-07-20T11:33:47;20.70;99.90
52321;DHT22;38261;54.090;13.382;2023-07-20T11:35:12;20.60;99.90
52321;DHT22;38261;54.090;13.382;2023-07-20T11:36:35;20.50;99.90
52321;DHT22;38261;54.090;13.382;2023-07-20T11:38:00;20.50;99.90
52321;DHT22;38261;54.090;13.382;2023-07-20T11:39:22;20.50;99.90
52321;DHT22;38261;54.090;13.382;2023-07-20T11:40:47;20.60;99.90
52321;DHT22;38261;54.090;13.382;2023-07-20T11:42:09;20.80;99.90
52321;DHT22;38261;54.090;13.382;2023-07-20T11:43:31;21.00;99.90
52321;DHT22;38261;54.090;13.382;2023-07-20T11:44:54;21.10;99.90
52321;DHT22;38261;54.090;13.382;2023-07-20T11:46:19;21.10;99.90
52321;DHT22;38261;54.090;13.382;2023-07-20T11:47:41;21.00;99.90
52321;DHT22;38261;54.090;13.382;2023-07-20T11:49:04;21.00;99.90
52321;DHT22;38261;54.090;13.382;2023-07-20T11:50:26;21.00;99.90
52321;DHT22;38261;54.090;13.382;2023-07-20T11:51:48;21.00;99.90
52321;DHT22;38261;54.090;13.382;2023-07-20T11:53:11;21.00;99.90
52321;DHT22;38261;54.090;13.382;2023-07-20T11:54:40;20.90;99.90
52321;DHT22;38261;54.090;13.382;2023-07-20T11:56:07;20.80;99.90
52321;DHT22;38261;54.090;13.382;2023-07-20T11:57:29;20.70;99.90
52321;DHT22;38261;54.090;13.382;2023-07-20T11:58:54;20.70;99.90
52321;DHT22;38261;54.090;13.382;2023-07-20T12:00:17;20.50;99.90
52321;DHT22;38261;54.090;13.382;2023-07-20T12:01:39;20.50;99.90
52321;DHT22;38261;54.090;13.382;2023-07-20T12:03:05;20.60;99.90
52321;DHT22;38261;54.090;13.382;2023-07-20T12:04:32;20.60;99.90
52321;DHT22;38261;54.090;13.382;2023-07-20T12:05:55;20.60;99.90
52321;DHT22;38261;54.090;13.382;2023-07-20T12:07:23;20.70;99.90
52321;DHT22;38261;54.090;13.382;2023-07-20T12:08:45;20.70;99.90
52321;DHT22;38261;54.090;13.382;2023-07-20T12:11:40;20.70;99.90
52321;DHT22;38261;54.090;13.382;2023-07-20T12:13:02;20.70;99.90
52321;DHT22;38261;54.090;13.382;2023-07-20T12:14:28;20.70;99.90
52321;DHT22;38261;54.090;13.382;2023-07-20T12:15:53;20.80;99.90
52321;DHT22;38261;54.090;13.382;2023-07-20T12:17:19;20.80;99.90
52321;DHT22;38261;54.090;13.382;2023-07-20T12:18:43;20.80;99.90
52321;DHT22;38261;54.090;13.382;2023-07-20T12:20:05;20.80;99.90
52321;DHT22;38261;54.090;13.382;2023-07-20T12:21:29;20.80;99.90
52321;DHT22;38261;54.090;13.382;2023-07-20T12:22:51;20.70;99.90
52321;DHT22;38261;54.090;13.382;2023-07-20T12:24:16;20.70;99.90
52321;DHT22;38261;54.090;13.382;2023-07-20T12:25:48;20.50;99.90
52321;DHT22;38261;54.090;13.382;2023-07-20T12:27:13;20.30;99.90
52321;DHT22;38261;54.090;13.382;2023-07-20T12:28:40;20.10;99.90
52321;DHT22;38261;54.090;13.382;2023-07-20T12:30:06;20.00;99.90
52321;DHT22;38261;54.090;13.382;2023-07-20T12:31:29;20.00;99.90
52321;DHT22;38261;54.090;13.382;2023-07-20T12:32:51;20.10;99.90
52321;DHT22;38261;54.090;13.382;2023-07-20T12:34:14;20.20;99.90
52321;DHT22;38261;54.090;13.382;2023-07-20T12:35:36;20.10;99.90
52321;DHT22;38261;54.090;13.382;2023-07-20T12:36:58;20.10;99.90
52321;DHT22;38261;54.090;13.382;2023-07-20T12:38:21;20.20;99.90
52321;DHT22;38261;54.090;13.382;2023-07-20T12:39:43;20.50;99.90
52321;DHT22;38261;54.090;13.382;2023-07-20T12:41:11;20.90;99.90
52321;DHT22;38261;54.090;13.382;2023-07-20T12:42:38;21.30;99.90
52321;DHT22;38261;54.090;13.382;2023-07-20T12:44:00;21.40;99.90
52321;DHT22;38261;54.090;13.382;2023-07-20T12:45:22;21.40;99.90
52321;DHT22;38261;54.090;13.382;2023-07-20T12:46:45;21.50;99.90
52321;DHT22;38261;54.090;13.382;2023-07-20T12:48:07;21.60;99.90
52321;DHT22;38261;54.090;13.382;2023-07-20T12:49:29;21.70;99.90
52321;DHT22;38261;54.090;13.382;2023-07-20T12:50:51;21.80;99.90
52321;DHT22;38261;54.090;13.382;2023-07-20T12:52:14;21.90;99.90
52321;DHT22;38261;54.090;13.382;2023-07-20T12:53:36;22.00;99.90
52321;DHT22;38261;54.090;13.382;2023-07-20T12:54:58;22.10;99.90
52321;DHT22;38261;54.090;13.382;2023-07-20T12:56:20;22.10;99.90
52321;DHT22;38261;54.090;13.382;2023-07-20T12:57:46;22.30;99.90
52321;DHT22;38261;54.090;13.382;2023-07-20T12:59:08;22.30;99.90
52321;DHT22;38261;54.090;13.382;2023-07-20T13:00:31;22.10;99.90
52321;DHT22;38261;54.090;13.382;2023-07-20T13:01:54;22.00;99.90
52321;DHT22;38261;54.090;13.382;2023-07-20T13:03:16;22.10;99.90
52321;DHT22;38261;54.090;13.382;2023-07-20T13:04:43;22.20;99.90
52321;DHT22;38261;54.090;13.382;2023-07-20T13:06:06;22.50;99.90
52321;DHT22;38261;54.090;13.382;2023-07-20T13:07:35;22.50;99.90
52321;DHT22;38261;54.090;13.382;2023-07-20T13:09:02;22.50;99.90
52321;DHT22;38261;54.090;13.382;2023-07-20T13:10:25;22.50;99.90
52321;DHT22;38261;54.090;13.382;2023-07-20T13:11:48;22.50;99.90
52321;DHT22;38261;54.090;13.382;2023-07-20T13:13:10;22.50;99.90
52321;DHT22;38261;54.090;13.382;2023-07-20T13:14:32;22.40;99.90
52321;DHT22;38261;54.090;13.382;2023-07-20T13:15:55;22.30;99.90
52321;DHT22;38261;54.090;13.382;2023-07-20T13:17:17;22.20;99.90
52321;DHT22;38261;54.090;13.382;2023-07-20T13:18:39;22.20;99.90
52321;DHT22;38261;54.090;13.382;2023-07-20T13:20:03;22.00;99.90
52321;DHT22;38261;54.090;13.382;2023-07-20T13:21:26;22.00;99.90
52321;DHT22;38261;54.090;13.382;2023-07-20T13:22:49;22.20;99.90
52321;DHT22;38261;54.090;13.382;2023-07-20T13:24:11;22.40;99.90
52321;DHT22;38261;54.090;13.382;2023-07-20T13:25:34;22.60;99.90
52321;DHT22;38261;54.090;13.382;2023-07-20T13:26:57;22.80;99.90
52321;DHT22;38261;54.090;13.382;2023-07-20T13:28:19;22.60;99.90
52321;DHT22;38261;54.090;13.382;2023-07-20T13:29:42;22.40;99.90
52321;DHT22;38261;54.090;13.382;2023-07-20T13:31:05;22.10;99.90
52321;DHT22;38261;54.090;13.382;2023-07-20T13:32:28;21.70;99.90
52321;DHT22;38261;54.090;13.382;2023-07-20T13:33:55;21.40;99.90
52321;DHT22;38261;54.090;13.382;2023-07-20T13:35:22;21.00;99.90
52321;DHT22;38261;54.090;13.382;2023-07-20T13:36:44;20.90;99.90
52321;DHT22;38261;54.090;13.382;2023-07-20T13:38:07;21.00;99.90
52321;DHT22;38261;54.090;13.382;2023-07-20T13:39:29;21.00;99.90
52321;DHT22;38261;54.090;13.382;2023-07-20T13:40:52;21.10;99.90
52321;DHT22;38261;54.090;13.382;2023-07-20T13:42:16;21.10;99.90
52321;DHT22;38261;54.090;13.382;2023-07-20T13:43:43;21.20;99.90
52321;DHT22;38261;54.090;13.382;2023-07-20T13:45:06;21.30;99.90
52321;DHT22;38261;54.090;13.382;2023-07-20T13:46:30;21.40;99.90
52321;DHT22;38261;54.090;13.382;2023-07-20T13:47:55;21.40;99.90
52321;DHT22;38261;54.090;13.382;2023-07-20T13:49:18;21.40;99.90
52321;DHT22;38261;54.090;13.382;2023-07-20T13:50:45;21.50;99.90
52321;DHT22;38261;54.090;13.382;2023-07-20T13:52:22;21.40;99.90
52321;DHT22;38261;54.090;13.382;2023-07-20T13:53:48;21.30;99.90
52321;DHT22;38261;54.090;13.382;2023-07-20T13:55:13;21.20;99.90
52321;DHT22;38261;54.090;13.382;2023-07-20T13:56:37;21.40;99.90
52321;DHT22;38261;54.090;13.382;2023-07-20T13:58:00;21.70;99.90
52321;DHT22;38261;54.090;13.382;2023-07-20T13:59:23;22.00;99.90
52321;DHT22;38261;54.090;13.382;2023-07-20T14:00:46;22.20;99.90
52321;DHT22;38261;54.090;13.382;2023-07-20T14:02:09;22.40;99.90
52321;DHT22;38261;54.090;13.382;2023-07-20T14:03:34;22.60;99.90
52321;DHT22;38261;54.090;13.382;2023-07-20T14:04:59;22.90;99.90
52321;DHT22;38261;54.090;13.382;2023-07-20T14:06:25;23.00;99.90
52321;DHT22;38261;54.090;13.382;2023-07-20T14:07:51;23.10;99.90
52321;DHT22;38261;54.090;13.382;2023-07-20T14:09:14;22.80;99.90
52321;DHT22;38261;54.090;13.382;2023-07-20T14:10:36;22.20;99.90
52321;DHT22;38261;54.090;13.382;2023-07-20T14:12:20;21.90;99.90
52321;DHT22;38261;54.090;13.382;2023-07-20T14:13:42;21.60;99.90
52321;DHT22;38261;54.090;13.382;2023-07-20T14:15:10;21.40;99.90
52321;DHT22;38261;54.090;13.382;2023-07-20T14:16:33;21.40;99.90
52321;DHT22;38261;54.090;13.382;2023-07-20T14:17:55;21.40;99.90
52321;DHT22;38261;54.090;13.382;2023-07-20T14:19:18;21.50;99.90
52321;DHT22;38261;54.090;13.382;2023-07-20T14:20:40;21.70;99.90
52321;DHT22;38261;54.090;13.382;2023-07-20T14:22:03;21.80;99.90
52321;DHT22;38261;54.090;13.382;2023-07-20T14:23:26;22.00;99.90
52321;DHT22;38261;54.090;13.382;2023-07-20T14:24:48;22.20;99.90
52321;DHT22;38261;54.090;13.382;2023-07-20T14:26:10;22.40;99.90
52321;DHT22;38261;54.090;13.382;2023-07-20T14:27:34;22.50;99.90
52321;DHT22;38261;54.090;13.382;2023-07-20T14:28:59;22.50;99.90
52321;DHT22;38261;54.090;13.382;2023-07-20T14:30:21;22.40;99.90
52321;DHT22;38261;54.090;13.382;2023-07-20T14:31:44;22.40;99.90
52321;DHT22;38261;54.090;13.382;2023-07-20T14:33:07;22.20;99.90
52321;DHT22;38261;54.090;13.382;2023-07-20T14:34:30;22.30;99.90
52321;DHT22;38261;54.090;13.382;2023-07-20T14:35:55;22.30;99.90
52321;DHT22;38261;54.090;13.382;2023-07-20T14:37:19;22.30;99.90
52321;DHT22;38261;54.090;13.382;2023-07-20T14:38:43;22.10;99.90
52321;DHT22;38261;54.090;13.382;2023-07-20T14:40:06;22.00;99.90
52321;DHT22;38261;54.090;13.382;2023-07-20T14:41:30;22.10;99.90
52321;DHT22;38261;54.090;13.382;2023-07-20T14:42:52;22.10;99.90
52321;DHT22;38261;54.090;13.382;2023-07-20T14:44:15;22.20;99.90
52321;DHT22;38261;54.090;13.382;2023-07-20T14:45:38;22.10;99.90
52321;DHT22;38261;54.090;13.382;2023-07-20T14:47:00;22.10;99.90
52321;DHT22;38261;54.090;13.382;2023-07-20T14:48:35;22.00;99.90
52321;DHT22;38261;54.090;13.382;2023-07-20T14:49:58;22.00;99.90
52321;DHT22;38261;54.090;13.382;2023-07-20T14:51:20;21.80;99.90
52321;DHT22;38261;54.090;13.382;2023-07-20T14:52:42;21.80;99.90
52321;DHT22;38261;54.090;13.382;2023-07-20T14:54:07;21.80;99.90
52321;DHT22;38261;54.090;13.382;2023-07-20T14:55:30;21.80;99.90
52321;DHT22;38261;54.090;13.382;2023-07-20T14:56:52;21.80;99.90
52321;DHT22;38261;54.090;13.382;2023-07-20T14:58:14;21.70;99.90
52321;DHT22;38261;54.090;13.382;2023-07-20T14:59:37;21.70;99.90
52321;DHT22;38261;54.090;13.382;2023-07-20T15:00:59;21.70;99.90
52321;DHT22;38261;54.090;13.382;2023-07-20T15:02:22;21.70;99.90
52321;DHT22;38261;54.090;13.382;2023-07-20T15:03:45;21.80;99.90
52321;DHT22;38261;54.090;13.382;2023-07-20T15:05:08;21.80;99.90
52321;DHT22;38261;54.090;13.382;2023-07-20T15:06:31;21.70;99.90
52321;DHT22;38261;54.090;13.382;2023-07-20T15:07:54;21.60;99.90
52321;DHT22;38261;54.090;13.382;2023-07-20T15:09:16;21.60;99.90
52321;DHT22;38261;54.090;13.382;2023-07-20T15:10:39;21.60;99.90
52321;DHT22;38261;54.090;13.382;2023-07-20T15:12:01;21.50;99.90
52321;DHT22;38261;54.090;13.382;2023-07-20T15:13:23;21.50;99.90
52321;DHT22;38261;54.090;13.382;2023-07-20T15:16:31;21.40;99.90
52321;DHT22;38261;54.090;13.382;2023-07-20T15:17:53;21.30;99.90
52321;DHT22;38261;54.090;13.382;2023-07-20T15:19:16;21.20;99.90
52321;DHT22;38261;54.090;13.382;2023-07-20T15:20:39;21.10;99.90
52321;DHT22;38261;54.090;13.382;2023-07-20T15:22:02;21.10;99.90
52321;DHT22;38261;54.090;13.382;2023-07-20T15:23:25;21.10;99.90
52321;DHT22;38261;54.090;13.382;2023-07-20T15:24:48;21.30;99.90
52321;DHT22;38261;54.090;13.382;2023-07-20T15:26:11;21.30;99.90
52321;DHT22;38261;54.090;13.382;2023-07-20T15:27:34;21.40;99.90
52321;DHT22;38261;54.090;13.382;2023-07-20T15:28:57;21.50;99.90
52321;DHT22;38261;54.090;13.382;2023-07-20T15:30:19;21.40;99.90
52321;DHT22;38261;54.090;13.382;2023-07-20T15:31:45;21.40;99.90
52321;DHT22;38261;54.090;13.382;2023-07-20T15:33:10;21.40;99.90
52321;DHT22;38261;54.090;13.382;2023-07-20T15:34:32;21.40;99.90
52321;DHT22;38261;54.090;13.382;2023-07-20T15:35:55;21.30;99.90
52321;DHT22;38261;54.090;13.382;2023-07-20T15:37:17;21.20;99.90
52321;DHT22;38261;54.090;13.382;2023-07-20T15:38:40;21.20;99.90
52321;DHT22;38261;54.090;13.382;2023-07-20T15:40:05;21.20;99.90
52321;DHT22;38261;54.090;13.382;2023-07-20T15:41:28;21.20;99.90
52321;DHT22;38261;54.090;13.382;2023-07-20T15:42:52;21.20;99.90
52321;DHT22;38261;54.090;13.382;2023-07-20T15:44:15;21.10;99.90
52321;DHT22;38261;54.090;13.382;2023-07-20T15:45:37;21.00;99.90
52321;DHT22;38261;54.090;13.382;2023-07-20T15:47:00;20.90;99.90
52321;DHT22;38261;54.090;13.382;2023-07-20T15:48:23;20.90;99.90
52321;DHT22;38261;54.090;13.382;2023-07-20T15:49:45;20.90;99.90
52321;DHT22;38261;54.090;13.382;2023-07-20T15:51:08;21.00;99.90
52321;DHT22;38261;54.090;13.382;2023-07-20T15:52:30;21.10;99.90
52321;DHT22;38261;54.090;13.382;2023-07-20T15:53:53;21.20;99.90
52321;DHT22;38261;54.090;13.382;2023-07-20T15:55:15;21.30;99.90
52321;DHT22;38261;54.090;13.382;2023-07-20T15:56:39;21.30;99.90
52321;DHT22;38261;54.090;13.382;2023-07-20T15:58:01;21.40;99.90
52321;DHT22;38261;54.090;13.382;2023-07-20T15:59:24;21.60;99.90
52321;DHT22;38261;54.090;13.382;2023-07-20T16:00:53;21.50;99.90
52321;DHT22;38261;54.090;13.382;2023-07-20T16:02:17;21.50;99.90
52321;DHT22;38261;54.090;13.382;2023-07-20T16:03:39;21.50;99.90
52321;DHT22;38261;54.090;13.382;2023-07-20T16:05:02;21.40;99.90
52321;DHT22;38261;54.090;13.382;2023-07-20T16:06:28;21.30;99.90
52321;DHT22;38261;54.090;13.382;2023-07-20T16:07:51;21.30;99.90
52321;DHT22;38261;54.090;13.382;2023-07-20T16:09:14;21.30;99.90
52321;DHT22;38261;54.090;13.382;2023-07-20T16:10:37;21.30;99.90
52321;DHT22;38261;54.090;13.382;2023-07-20T16:11:59;21.30;99.90
52321;DHT22;38261;54.090;13.382;2023-07-20T16:13:22;21.30;99.90
52321;DHT22;38261;54.090;13.382;2023-07-20T16:14:44;21.20;99.90
52321;DHT22;38261;54.090;13.382;2023-07-20T16:16:09;21.10;99.90
52321;DHT22;38261;54.090;13.382;2023-07-20T16:17:32;21.00;99.90
52321;DHT22;38261;54.090;13.382;2023-07-20T16:18:54;20.80;99.90
52321;DHT22;38261;54.090;13.382;2023-07-20T16:20:16;20.60;99.90
52321;DHT22;38261;54.090;13.382;2023-07-20T16:21:39;20.60;99.90
52321;DHT22;38261;54.090;13.382;2023-07-20T16:23:01;20.60;99.90
52321;DHT22;38261;54.090;13.382;2023-07-20T16:24:27;20.50;99.90
52321;DHT22;38261;54.090;13.382;2023-07-20T16:25:50;20.50;99.90
52321;DHT22;38261;54.090;13.382;2023-07-20T16:27:13;20.50;99.90
52321;DHT22;38261;54.090;13.382;2023-07-20T16:28:36;20.60;99.90
52321;DHT22;38261;54.090;13.382;2023-07-20T16:29:59;20.50;99.90
52321;DHT22;38261;54.090;13.382;2023-07-20T16:31:21;20.50;99.90